createdAt,value
2019-02-18T00:00:55.537Z,18.07
2019-02-18T00:03:25.211Z,18.83
2019-02-18T00:05:54.703Z,18.73
2019-02-18T00:08:24.221Z,17.97
2019-02-18T00:10:53.719Z,20.53
2019-02-18T00:13:23.219Z,17.80
2019-02-18T00:15:52.075Z,17.17
2019-02-18T00:18:21.615Z,20.73
2019-02-18T00:20:51.124Z,19.37
2019-02-18T00:23:20.651Z,19.30
2019-02-18T00:25:50.168Z,17.67
2019-02-18T00:28:19.131Z,16.43
2019-02-18T00:30:48.797Z,17.73
2019-02-18T00:33:18.311Z,17.70
2019-02-18T00:35:47.911Z,16.73
2019-02-18T00:38:17.384Z,16.77
2019-02-18T00:40:46.961Z,15.70
2019-02-18T00:43:16.474Z,17.67
2019-02-18T00:45:46.020Z,16.47
2019-02-18T00:48:15.497Z,18.97
2019-02-18T00:50:45.038Z,16.53
2019-02-18T00:53:14.577Z,17.03
2019-02-18T00:55:44.203Z,18.73
2019-02-18T00:58:13.718Z,17.87
2019-02-18T01:00:43.219Z,16.53
2019-02-18T01:03:12.962Z,16.50
2019-02-18T01:05:42.459Z,19.03
2019-02-18T01:08:11.977Z,18.77
2019-02-18T01:10:41.596Z,19.47
2019-02-18T01:13:11.251Z,18.13
2019-02-18T01:15:40.799Z,21.03
2019-02-18T01:18:10.300Z,19.03
2019-02-18T01:20:39.819Z,16.00
2019-02-18T01:23:09.331Z,17.10
2019-02-18T01:25:38.843Z,16.87
2019-02-18T01:28:08.363Z,19.33
2019-02-18T01:30:38.035Z,17.60
2019-02-18T01:33:07.535Z,16.70
2019-02-18T01:35:37.162Z,18.00
2019-02-18T01:38:06.676Z,16.60
2019-02-18T01:40:36.210Z,17.73
2019-02-18T01:43:05.733Z,17.20
2019-02-18T01:45:35.239Z,19.17
2019-02-18T01:48:04.741Z,16.13
2019-02-18T01:50:34.282Z,14.90
2019-02-18T01:53:03.831Z,17.50
2019-02-18T01:55:33.367Z,16.90
2019-02-18T01:58:02.852Z,17.47
2019-02-18T02:00:32.356Z,16.90
2019-02-18T02:03:01.952Z,17.77
2019-02-18T02:05:31.467Z,16.93
2019-02-18T02:08:00.979Z,16.43
2019-02-18T02:10:29.875Z,17.20
2019-02-18T02:13:27.471Z,14.73
2019-02-18T02:15:57.316Z,15.03
2019-02-18T02:18:26.826Z,16.13
2019-02-18T02:20:56.337Z,14.93
2019-02-18T02:23:25.888Z,16.57
2019-02-18T02:25:55.396Z,15.07
2019-02-18T02:28:24.926Z,15.27
2019-02-18T02:30:54.448Z,15.00
2019-02-18T02:33:23.347Z,14.03
2019-02-18T02:35:52.238Z,14.90
2019-02-18T02:38:21.757Z,12.23
2019-02-18T02:40:51.265Z,12.97
2019-02-18T02:43:20.791Z,14.00
2019-02-18T02:45:50.308Z,15.27
2019-02-18T02:48:19.888Z,14.77
2019-02-18T02:50:49.619Z,13.97
2019-02-18T02:53:19.158Z,15.13
2019-02-18T02:55:48.875Z,14.47
2019-02-18T02:58:18.424Z,14.73
2019-02-18T03:00:47.928Z,12.90
2019-02-18T03:03:17.535Z,13.87
2019-02-18T03:05:47.018Z,14.23
2019-02-18T03:08:20.490Z,12.67
2019-02-18T03:10:47.692Z,12.17
2019-02-18T03:13:17.168Z,11.10
2019-02-18T03:15:46.800Z,14.50
2019-02-18T03:18:16.275Z,11.97
2019-02-18T03:20:45.818Z,13.30
2019-02-18T03:23:17.625Z,15.13
2019-02-18T03:25:49.395Z,14.13
2019-02-18T03:28:47.932Z,13.07
2019-02-18T03:31:21.541Z,13.57
2019-02-18T03:33:52.618Z,13.57
2019-02-18T03:36:22.260Z,12.47
2019-02-18T03:38:51.808Z,13.97
2019-02-18T03:41:21.311Z,14.10
2019-02-18T03:43:50.799Z,12.20
2019-02-18T03:46:19.689Z,13.30
2019-02-18T03:48:49.216Z,12.47
2019-02-18T03:51:18.716Z,12.67
2019-02-18T03:53:48.236Z,12.63
2019-02-18T03:56:17.797Z,13.83
2019-02-18T03:58:46.693Z,14.03
2019-02-18T04:01:16.220Z,13.97
2019-02-18T04:03:45.859Z,13.60
2019-02-18T04:06:15.395Z,13.70
2019-02-18T04:08:44.869Z,12.50
2019-02-18T04:11:16.549Z,16.97
2019-02-18T04:13:46.075Z,13.67
2019-02-18T04:16:15.610Z,17.30
2019-02-18T04:18:45.154Z,13.80
2019-02-18T04:21:14.691Z,16.57
2019-02-18T04:23:44.179Z,14.87
2019-02-18T04:26:13.678Z,19.03
2019-02-18T04:28:43.216Z,17.37
2019-02-18T04:31:12.772Z,19.07
2019-02-18T04:33:42.315Z,15.47
2019-02-18T04:36:11.855Z,18.20
2019-02-18T04:38:41.367Z,15.43
2019-02-18T04:41:10.890Z,14.60
2019-02-18T04:43:42.222Z,15.53
2019-02-18T04:46:11.537Z,16.37
2019-02-18T04:48:41.047Z,16.43
2019-02-18T04:51:10.541Z,16.60
2019-02-18T04:53:40.075Z,16.30
2019-02-18T04:56:09.595Z,14.73
2019-02-18T04:58:39.101Z,16.33
2019-02-18T05:01:08.639Z,17.43
2019-02-18T05:03:38.149Z,15.93
2019-02-18T05:06:07.640Z,16.03
2019-02-18T05:08:37.182Z,15.47
2019-02-18T05:11:06.703Z,13.80
2019-02-18T05:13:36.188Z,16.33
2019-02-18T05:16:05.703Z,14.97
2019-02-18T05:18:34.583Z,17.07
2019-02-18T05:21:04.068Z,16.17
2019-02-18T05:23:33.613Z,14.40
2019-02-18T05:26:03.145Z,14.87
2019-02-18T05:28:32.634Z,14.23
2019-02-18T05:31:02.161Z,13.57
2019-02-18T05:33:31.633Z,16.43
2019-02-18T05:36:01.213Z,14.43
2019-02-18T05:38:30.699Z,14.27
2019-02-18T05:41:00.509Z,15.90
2019-02-18T05:43:29.979Z,14.93
2019-02-18T05:45:59.554Z,15.17
2019-02-18T05:48:29.070Z,16.13
2019-02-18T05:50:58.586Z,15.97
2019-02-18T05:53:28.122Z,16.37
2019-02-18T05:55:57.642Z,14.40
2019-02-18T05:58:27.128Z,17.37
2019-02-18T06:00:56.714Z,16.27
2019-02-18T06:03:26.233Z,16.07
2019-02-18T06:05:55.771Z,18.47
2019-02-18T06:08:25.271Z,15.90
2019-02-18T06:10:55.746Z,17.63
2019-02-18T06:13:24.602Z,19.50
2019-02-18T06:15:54.103Z,17.47
2019-02-18T06:18:23.599Z,15.37
2019-02-18T06:20:53.152Z,19.57
2019-02-18T06:23:22.647Z,18.27
2019-02-18T06:25:52.157Z,20.73
2019-02-18T06:28:21.687Z,17.93
2019-02-18T06:30:51.196Z,15.53
2019-02-18T06:33:20.712Z,17.87
2019-02-18T06:35:50.203Z,18.37
2019-02-18T06:38:19.704Z,22.30
2019-02-18T06:40:49.205Z,25.30
2019-02-18T06:43:18.721Z,21.80
2019-02-18T06:46:09.978Z,22.60
2019-02-18T06:48:45.587Z,17.53
2019-02-18T06:51:17.052Z,21.77
2019-02-18T06:53:46.290Z,22.50
2019-02-18T06:56:18.355Z,19.10
2019-02-18T06:58:58.045Z,21.27
2019-02-18T07:01:32.926Z,17.23
2019-02-18T07:04:27.523Z,16.13
2019-02-18T07:07:11.138Z,16.47
2019-02-18T07:10:04.922Z,23.13
2019-02-18T07:12:40.443Z,15.23
2019-02-18T07:15:10.138Z,17.07
2019-02-18T07:17:39.668Z,15.63
2019-02-18T07:20:09.268Z,17.77
2019-02-18T07:22:38.795Z,15.93
2019-02-18T07:25:08.416Z,16.30
2019-02-18T07:27:37.950Z,17.27
2019-02-18T07:30:08.174Z,15.87
2019-02-18T07:32:37.701Z,15.23
2019-02-18T07:35:07.351Z,16.03
2019-02-18T07:37:36.884Z,15.73
2019-02-18T07:40:07.989Z,15.80
2019-02-18T07:42:37.497Z,14.03
2019-02-18T07:45:06.970Z,16.53
2019-02-18T07:47:36.477Z,17.00
2019-02-18T07:50:06.811Z,14.90
2019-02-18T07:52:36.312Z,14.67
2019-02-18T07:55:06.166Z,16.60
2019-02-18T07:57:35.707Z,13.80
2019-02-18T08:00:05.512Z,14.57
2019-02-18T08:02:35.013Z,16.17
2019-02-18T08:05:03.881Z,15.90
2019-02-18T08:07:33.379Z,16.87
2019-02-18T08:10:11.452Z,18.63
2019-02-18T08:12:33.415Z,17.63
2019-02-18T08:15:02.927Z,15.53
2019-02-18T08:17:32.435Z,16.60
2019-02-18T08:20:01.931Z,18.83
2019-02-18T08:22:31.414Z,19.07
2019-02-18T08:25:00.910Z,18.50
2019-02-18T08:27:30.432Z,18.73
2019-02-18T08:29:59.948Z,18.83
2019-02-18T08:32:29.467Z,18.07
2019-02-18T08:34:59.006Z,21.43
2019-02-18T08:37:30.264Z,18.13
2019-02-18T08:39:59.090Z,18.03
2019-02-18T08:42:28.552Z,15.20
2019-02-18T08:44:58.106Z,20.87
2019-02-18T08:47:27.615Z,15.17
2019-02-18T08:49:57.686Z,15.73
2019-02-18T08:52:27.265Z,16.87
2019-02-18T08:54:57.039Z,18.00
2019-02-18T08:57:27.143Z,16.77
2019-02-18T08:59:56.672Z,17.47
2019-02-18T09:02:26.161Z,15.20
2019-02-18T09:04:55.717Z,15.57
2019-02-18T09:07:25.230Z,14.77
2019-02-18T09:09:54.771Z,16.80
2019-02-18T09:12:24.257Z,16.40
2019-02-18T09:14:53.781Z,14.90
2019-02-18T09:17:23.315Z,17.67
2019-02-18T09:19:54.506Z,16.93
2019-02-18T09:22:41.688Z,14.60
2019-02-18T09:25:20.655Z,18.07
2019-02-18T09:27:51.867Z,19.27
2019-02-18T09:30:25.087Z,19.50
2019-02-18T09:32:54.661Z,18.67
2019-02-18T09:35:24.138Z,18.00
2019-02-18T09:37:53.017Z,16.43
2019-02-18T09:40:22.539Z,16.37
2019-02-18T09:42:51.419Z,17.43
2019-02-18T09:45:20.963Z,16.97
2019-02-18T09:47:50.495Z,15.83
2019-02-18T09:50:19.991Z,17.63
2019-02-18T09:52:49.520Z,18.17
2019-02-18T09:55:19.007Z,16.17
2019-02-18T09:57:48.498Z,16.83
2019-02-18T10:00:17.472Z,37.97
2019-02-18T10:02:47.051Z,16.47
2019-02-18T10:05:16.540Z,18.17
2019-02-18T10:07:45.423Z,16.37
2019-02-18T10:10:14.932Z,15.30
2019-02-18T10:12:44.471Z,16.63
2019-02-18T10:15:14.087Z,19.43
2019-02-18T10:17:43.591Z,17.47
2019-02-18T10:20:13.144Z,17.87
2019-02-18T10:22:42.659Z,17.23
2019-02-18T10:25:12.346Z,17.97
2019-02-18T10:27:41.847Z,16.40
2019-02-18T10:30:11.714Z,16.80
2019-02-18T10:32:41.230Z,15.40
2019-02-18T10:35:11.236Z,15.37
2019-02-18T10:37:40.779Z,15.90
2019-02-18T10:40:10.601Z,13.90
2019-02-18T10:42:40.130Z,18.33
2019-02-18T10:45:10.751Z,13.57
2019-02-18T10:47:40.252Z,17.00
2019-02-18T10:50:10.475Z,15.47
2019-02-18T10:52:39.987Z,16.30
2019-02-18T10:55:09.771Z,16.50
2019-02-18T10:57:39.220Z,14.57
2019-02-18T11:00:10.823Z,15.40
2019-02-18T11:02:40.340Z,13.23
2019-02-18T11:05:10.197Z,17.67
2019-02-18T11:07:39.710Z,15.17
2019-02-18T11:10:11.672Z,16.73
2019-02-18T11:12:41.231Z,17.43
2019-02-18T11:15:11.815Z,17.23
2019-02-18T11:17:41.347Z,15.47
2019-02-18T11:20:11.654Z,15.53
2019-02-18T11:22:41.118Z,17.20
2019-02-18T11:25:11.048Z,14.57
2019-02-18T11:27:40.549Z,20.27
2019-02-18T11:30:12.682Z,13.27
2019-02-18T11:32:41.555Z,15.40
2019-02-18T11:35:11.291Z,16.17
2019-02-18T11:37:40.813Z,14.43
2019-02-18T11:40:12.525Z,15.50
2019-02-18T11:42:42.075Z,13.63
2019-02-18T11:45:11.975Z,17.20
2019-02-18T11:47:41.512Z,13.30
2019-02-18T11:50:11.716Z,14.45
2019-02-18T11:52:41.236Z,13.35
2019-02-18T11:55:11.145Z,14.13
2019-02-18T11:57:40.631Z,12.25
2019-02-18T12:00:11.819Z,14.87
2019-02-18T12:02:41.356Z,10.75
2019-02-18T12:05:11.088Z,12.95
2019-02-18T12:07:40.600Z,11.48
2019-02-18T12:10:10.369Z,10.82
2019-02-18T12:12:40.418Z,10.32
2019-02-18T12:15:10.709Z,10.32
2019-02-18T12:17:40.450Z,11.65
2019-02-18T12:20:11.963Z,11.43
2019-02-18T12:22:41.601Z,11.55
2019-02-18T12:25:11.687Z,13.20
2019-02-18T12:27:41.481Z,11.63
2019-02-18T12:30:10.951Z,12.75
2019-02-18T12:32:40.465Z,12.15
2019-02-18T12:35:10.145Z,9.45
2019-02-18T12:37:39.743Z,9.48
2019-02-18T12:40:09.713Z,9.45
2019-02-18T12:42:41.951Z,10.13
2019-02-18T12:45:10.215Z,9.90
2019-02-18T12:47:39.730Z,11.28
2019-02-18T12:50:09.629Z,10.00
2019-02-18T12:52:39.120Z,11.53
2019-02-18T12:55:08.887Z,10.58
2019-02-18T12:57:38.920Z,10.95
2019-02-18T13:00:09.649Z,13.22
2019-02-18T13:02:44.226Z,11.73
2019-02-18T13:05:10.740Z,10.50
2019-02-18T13:07:40.258Z,12.13
2019-02-18T13:10:10.038Z,12.37
2019-02-18T13:12:39.550Z,9.85
2019-02-18T13:15:10.866Z,10.10
2019-02-18T13:17:42.716Z,12.65
2019-02-18T13:20:11.542Z,10.78
2019-02-18T13:22:41.091Z,10.45
2019-02-18T13:25:10.824Z,9.85
2019-02-18T13:27:40.361Z,10.15
2019-02-18T13:30:10.194Z,10.95
2019-02-18T13:32:39.720Z,10.75
2019-02-18T13:35:09.331Z,11.75
2019-02-18T13:37:38.811Z,12.98
2019-02-18T13:40:08.627Z,13.83
2019-02-18T13:42:38.115Z,8.63
2019-02-18T13:45:07.709Z,11.05
2019-02-18T13:47:37.192Z,9.25
2019-02-18T13:50:07.503Z,11.03
2019-02-18T13:52:36.987Z,9.20
2019-02-18T13:55:07.159Z,10.55
2019-02-18T13:57:36.768Z,13.43
2019-02-18T14:00:08.663Z,10.68
2019-02-18T14:02:38.192Z,8.70
2019-02-18T14:05:08.015Z,8.68
2019-02-18T14:07:37.536Z,11.55
2019-02-18T14:10:07.079Z,10.53
2019-02-18T14:12:36.191Z,8.55
2019-02-18T14:15:06.275Z,13.15
2019-02-18T14:17:35.816Z,14.40
2019-02-18T14:20:08.951Z,6.25
2019-02-18T14:22:38.516Z,6.28
2019-02-18T14:25:08.595Z,7.33
2019-02-18T14:27:38.181Z,6.92
2019-02-18T14:30:09.343Z,6.42
2019-02-18T14:32:38.856Z,4.78
2019-02-18T14:35:08.600Z,5.80
2019-02-18T14:37:38.094Z,6.40
2019-02-18T14:40:09.818Z,6.85
2019-02-18T14:42:39.340Z,6.85
2019-02-18T14:45:08.212Z,8.20
2019-02-18T14:47:37.743Z,6.70
2019-02-18T14:50:07.574Z,9.58
2019-02-18T14:52:37.077Z,6.47
2019-02-18T14:55:07.342Z,6.03
2019-02-18T14:57:36.847Z,7.25
2019-02-18T15:00:09.423Z,6.15
2019-02-18T15:02:38.978Z,6.70
2019-02-18T15:05:08.535Z,7.50
2019-02-18T15:07:38.078Z,7.50
2019-02-18T15:10:07.780Z,6.35
2019-02-18T15:12:37.314Z,6.62
2019-02-18T15:15:06.891Z,6.45
2019-02-18T15:17:36.414Z,6.40
2019-02-18T15:20:06.202Z,6.33
2019-02-18T15:22:36.005Z,6.08
2019-02-18T15:25:06.011Z,7.97
2019-02-18T15:27:35.526Z,6.10
2019-02-18T15:30:06.283Z,5.87
2019-02-18T15:32:35.785Z,6.90
2019-02-18T15:35:05.392Z,5.72
2019-02-18T15:37:35.276Z,5.97
2019-02-18T15:40:05.636Z,5.83
2019-02-18T15:42:41.841Z,6.90
2019-02-18T15:45:06.451Z,6.55
2019-02-18T15:47:35.992Z,6.53
2019-02-18T15:50:05.947Z,6.87
2019-02-18T15:52:35.429Z,7.58
2019-02-18T15:55:05.250Z,5.80
2019-02-18T15:57:34.123Z,11.50
2019-02-18T16:00:04.063Z,8.98
2019-02-18T16:02:33.773Z,6.75
2019-02-18T16:05:03.788Z,6.47
2019-02-18T16:07:33.327Z,5.95
2019-02-18T16:10:02.831Z,7.55
2019-02-18T16:12:32.345Z,6.50
2019-02-18T16:15:01.848Z,7.03
2019-02-18T16:17:31.325Z,8.33
2019-02-18T16:20:01.455Z,9.08
2019-02-18T16:22:30.978Z,7.85
2019-02-18T16:25:00.518Z,7.08
2019-02-18T16:27:29.363Z,8.98
2019-02-18T16:29:58.904Z,9.40
2019-02-18T16:32:28.379Z,9.03
2019-02-18T16:34:57.881Z,7.78
2019-02-18T16:37:27.792Z,8.18
2019-02-18T16:39:57.318Z,9.45
2019-02-18T16:42:26.870Z,7.28
2019-02-18T16:44:57.207Z,8.35
2019-02-18T16:47:26.748Z,9.83
2019-02-18T16:49:56.255Z,9.67
2019-02-18T16:52:25.824Z,7.97
2019-02-18T16:54:55.334Z,9.73
2019-02-18T16:57:24.871Z,9.50
2019-02-18T16:59:54.418Z,8.47
2019-02-18T17:02:23.912Z,9.23
2019-02-18T17:04:53.404Z,8.40
2019-02-18T17:07:22.972Z,10.43
2019-02-18T17:09:52.722Z,9.50
2019-02-18T17:12:22.234Z,13.03
2019-02-18T17:14:51.755Z,12.13
2019-02-18T17:17:20.623Z,13.47
2019-02-18T17:19:50.139Z,16.40
2019-02-18T17:22:19.720Z,18.80
2019-02-18T17:24:49.249Z,18.50
2019-02-18T17:27:18.761Z,16.77
2019-02-18T17:29:48.385Z,18.93
2019-02-18T17:32:17.938Z,27.73
2019-02-18T17:34:47.457Z,22.93
2019-02-18T17:37:16.975Z,18.67
2019-02-18T17:39:46.521Z,26.53
2019-02-18T17:42:16.040Z,27.53
2019-02-18T17:44:45.525Z,25.13
2019-02-18T17:47:16.658Z,18.20
2019-02-18T17:49:46.199Z,20.00
2019-02-18T17:52:15.072Z,19.53
2019-02-18T17:54:44.606Z,22.03
2019-02-18T17:57:14.116Z,21.10
2019-02-18T17:59:43.693Z,20.60
2019-02-18T18:02:13.280Z,18.83
2019-02-18T18:04:42.804Z,21.03
2019-02-18T18:07:12.341Z,19.77
2019-02-18T18:09:41.893Z,18.47
2019-02-18T18:12:11.392Z,19.80
2019-02-18T18:14:40.931Z,20.87
2019-02-18T18:17:10.935Z,21.37
2019-02-18T18:19:39.772Z,20.20
2019-02-18T18:22:09.571Z,20.20
2019-02-18T18:24:39.091Z,23.07
2019-02-18T18:27:10.205Z,23.53
2019-02-18T18:29:40.192Z,24.93
2019-02-18T18:32:10.132Z,23.90
2019-02-18T18:34:39.638Z,23.57
2019-02-18T18:37:09.156Z,23.63
2019-02-18T18:39:38.680Z,31.83
2019-02-18T18:42:08.232Z,28.63
2019-02-18T18:44:37.747Z,43.90
2019-02-18T18:47:06.622Z,30.43
2019-02-18T18:49:36.159Z,27.73
2019-02-18T18:52:05.699Z,26.87
2019-02-18T18:54:35.242Z,28.27
2019-02-18T18:57:04.774Z,29.23
2019-02-18T18:59:33.953Z,27.17
2019-02-18T19:02:03.876Z,22.83
2019-02-18T19:04:33.392Z,21.13
2019-02-18T19:07:02.971Z,21.37
2019-02-18T19:09:32.451Z,65.43
2019-02-18T19:12:01.989Z,38.83
2019-02-18T19:14:31.900Z,26.17
2019-02-18T19:17:01.765Z,24.20
2019-02-18T19:19:31.426Z,21.93
2019-02-18T19:22:00.947Z,23.77
2019-02-18T19:24:30.461Z,21.70
2019-02-18T19:27:00.016Z,22.37
2019-02-18T19:29:28.911Z,25.00
2019-02-18T19:31:58.405Z,24.47
2019-02-18T19:34:27.935Z,21.07
2019-02-18T19:36:57.445Z,23.73
2019-02-18T19:39:26.957Z,20.67
2019-02-18T19:41:56.990Z,24.27
2019-02-18T19:44:26.529Z,21.67
2019-02-18T19:46:56.007Z,23.63
2019-02-18T19:49:25.596Z,22.93
2019-02-18T19:51:55.115Z,20.63
2019-02-18T19:54:24.606Z,15.30
2019-02-18T19:56:54.608Z,19.17
2019-02-18T19:59:24.125Z,17.83
2019-02-18T20:01:53.611Z,15.70
2019-02-18T20:04:23.144Z,15.63
2019-02-18T20:06:52.655Z,15.13
2019-02-18T20:09:22.164Z,16.53
2019-02-18T20:11:51.707Z,16.70
2019-02-18T20:14:21.239Z,16.20
2019-02-18T20:16:50.099Z,14.63
2019-02-18T20:19:19.611Z,14.10
2019-02-18T20:21:48.508Z,16.17
2019-02-18T20:24:18.511Z,11.90
2019-02-18T20:26:48.030Z,12.20
2019-02-18T20:29:17.537Z,11.43
2019-02-18T20:31:47.039Z,10.73
2019-02-18T20:34:16.598Z,10.93
2019-02-18T20:36:47.449Z,11.77
2019-02-18T20:39:17.388Z,9.67
2019-02-18T20:41:46.884Z,10.13
2019-02-18T20:44:16.390Z,10.07
2019-02-18T20:46:45.943Z,8.37
2019-02-18T20:49:15.524Z,10.07
2019-02-18T20:51:45.071Z,11.20
2019-02-18T20:54:14.552Z,14.00
2019-02-18T20:56:44.072Z,16.50
2019-02-18T20:59:13.573Z,13.07
2019-02-18T21:01:43.127Z,18.77
2019-02-18T21:04:12.657Z,25.63
2019-02-18T21:06:42.255Z,17.80
2019-02-18T21:09:11.964Z,12.50
2019-02-18T21:11:41.437Z,9.87
2019-02-18T21:14:16.189Z,8.70
2019-02-18T21:16:42.065Z,7.63
2019-02-18T21:19:11.581Z,8.23
2019-02-18T21:21:41.385Z,7.90
2019-02-18T21:24:10.890Z,6.03
2019-02-18T21:26:40.423Z,8.47
2019-02-18T21:29:09.895Z,6.97
2019-02-18T21:31:39.468Z,8.87
2019-02-18T21:34:08.990Z,6.07
2019-02-18T21:36:39.040Z,7.67
2019-02-18T21:39:12.910Z,8.43
2019-02-18T21:41:42.428Z,6.93
2019-02-18T21:44:11.965Z,6.10
2019-02-18T21:46:40.861Z,10.13
2019-02-18T21:49:10.808Z,6.07
2019-02-18T21:51:40.304Z,7.37
2019-02-18T21:54:09.812Z,7.83
2019-02-18T21:56:39.336Z,6.13
2019-02-18T21:59:08.844Z,6.90
2019-02-18T22:01:38.318Z,7.17
2019-02-18T22:04:08.428Z,6.47
2019-02-18T22:06:37.972Z,6.00
2019-02-18T22:09:07.942Z,8.37
2019-02-18T22:11:36.821Z,7.30
2019-02-18T22:14:06.303Z,6.20
2019-02-18T22:16:35.893Z,9.17
2019-02-18T22:19:06.097Z,8.80
2019-02-18T22:21:35.650Z,9.60
2019-02-18T22:24:05.147Z,8.53
2019-02-18T22:26:34.657Z,7.50
2019-02-18T22:29:04.261Z,11.80
2019-02-18T22:31:33.710Z,13.40
2019-02-18T22:34:03.259Z,7.30
2019-02-18T22:36:32.805Z,10.40
2019-02-18T22:39:02.297Z,8.70
2019-02-18T22:41:31.779Z,9.53
2019-02-18T22:44:01.271Z,7.90
2019-02-18T22:46:30.822Z,8.47
2019-02-18T22:49:00.356Z,10.37
2019-02-18T22:51:29.891Z,11.00
2019-02-18T22:53:58.867Z,9.43
2019-02-18T22:56:28.372Z,9.63
2019-02-18T22:58:57.234Z,7.97
2019-02-18T23:01:26.778Z,8.33
2019-02-18T23:03:56.248Z,8.67
2019-02-18T23:06:26.163Z,9.23
2019-02-18T23:08:55.744Z,12.37
2019-02-18T23:11:25.333Z,11.47
2019-02-18T23:13:54.843Z,12.07
2019-02-18T23:16:24.389Z,7.50
2019-02-18T23:18:53.935Z,10.90
2019-02-18T23:21:23.932Z,8.97
2019-02-18T23:23:53.433Z,10.37
2019-02-18T23:26:22.304Z,8.60
2019-02-18T23:28:51.799Z,11.77
2019-02-18T23:31:21.324Z,8.77
2019-02-18T23:33:50.843Z,11.07
2019-02-18T23:36:20.901Z,11.03
2019-02-18T23:38:50.419Z,9.17
2019-02-18T23:41:19.977Z,9.63
2019-02-18T23:43:49.514Z,8.97
2019-02-18T23:46:19.013Z,10.23
2019-02-18T23:48:48.538Z,11.97
2019-02-18T23:51:18.114Z,11.30
2019-02-18T23:53:47.580Z,18.73
2019-02-18T23:56:17.119Z,11.13
2019-02-18T23:58:45.978Z,11.83
